createdAt,value
2019-05-11T00:01:07.646Z,8.40
2019-05-11T00:03:36.657Z,9.30
2019-05-11T00:06:06.235Z,7.80
2019-05-11T00:08:35.824Z,8.60
2019-05-11T00:11:05.427Z,8.67
2019-05-11T00:13:34.371Z,7.50
2019-05-11T00:16:03.953Z,8.80
2019-05-11T00:18:33.583Z,8.00
2019-05-11T00:21:03.178Z,8.50
2019-05-11T00:23:32.836Z,7.87
2019-05-11T00:26:02.480Z,8.13
2019-05-11T00:28:32.050Z,8.53
2019-05-11T00:31:01.812Z,8.17
2019-05-11T00:33:31.471Z,8.80
2019-05-11T00:36:01.124Z,8.03
2019-05-11T00:38:30.698Z,8.70
2019-05-11T00:41:00.340Z,10.37
2019-05-11T00:43:29.969Z,11.37
2019-05-11T00:45:59.559Z,11.83
2019-05-11T00:48:29.203Z,10.87
2019-05-11T00:50:58.800Z,11.50
2019-05-11T00:53:28.404Z,11.37
2019-05-11T00:55:58.098Z,10.97
2019-05-11T00:58:27.702Z,10.53
2019-05-11T01:00:57.375Z,11.33
2019-05-11T01:03:26.428Z,9.67
2019-05-11T01:05:56.086Z,10.53
2019-05-11T01:08:25.685Z,11.83
2019-05-11T01:10:55.345Z,10.93
2019-05-11T01:13:25.066Z,9.50
2019-05-11T01:15:54.655Z,10.40
2019-05-11T01:18:24.324Z,10.30
2019-05-11T01:20:53.922Z,12.53
2019-05-11T01:23:23.486Z,11.80
2019-05-11T01:25:53.365Z,11.03
2019-05-11T01:28:22.967Z,11.07
2019-05-11T01:30:52.557Z,11.70
2019-05-11T01:33:22.221Z,11.70
2019-05-11T01:35:51.861Z,11.13
2019-05-11T01:38:21.467Z,12.17
2019-05-11T01:40:58.905Z,11.83
2019-05-11T01:43:23.234Z,11.03
2019-05-11T01:45:52.871Z,12.50
2019-05-11T01:48:22.493Z,11.40
2019-05-11T01:50:52.098Z,12.67
2019-05-11T01:53:21.763Z,12.47
2019-05-11T01:55:50.698Z,13.30
2019-05-11T01:58:20.369Z,12.73
2019-05-11T02:00:50.012Z,11.93
2019-05-11T02:03:19.619Z,11.33
2019-05-11T02:05:51.725Z,12.17
2019-05-11T02:08:21.476Z,12.87
2019-05-11T02:10:51.114Z,13.03
2019-05-11T02:13:20.781Z,11.80
2019-05-11T02:15:50.386Z,12.43
2019-05-11T02:18:19.994Z,10.70
2019-05-11T02:20:49.672Z,11.60
2019-05-11T02:23:19.380Z,12.03
2019-05-11T02:25:48.990Z,12.03
2019-05-11T02:28:18.632Z,11.57
2019-05-11T02:30:48.310Z,10.90
2019-05-11T02:33:17.958Z,11.03
2019-05-11T02:35:46.910Z,11.70
2019-05-11T02:38:15.913Z,11.13
2019-05-11T02:40:45.709Z,11.27
2019-05-11T02:43:15.367Z,11.43
2019-05-11T02:45:45.106Z,10.90
2019-05-11T02:48:14.723Z,12.20
2019-05-11T02:50:44.922Z,11.53
2019-05-11T02:53:15.479Z,11.90
2019-05-11T02:55:47.812Z,12.10
2019-05-11T02:58:17.389Z,11.23
2019-05-11T03:00:47.271Z,11.67
2019-05-11T03:03:16.931Z,10.97
2019-05-11T03:05:46.520Z,11.07
2019-05-11T03:08:16.241Z,9.63
2019-05-11T03:10:45.882Z,9.83
2019-05-11T03:13:15.496Z,8.47
2019-05-11T03:15:45.063Z,7.70
2019-05-11T03:18:14.644Z,7.10
2019-05-11T03:20:44.268Z,6.67
2019-05-11T03:23:13.875Z,7.47
2019-05-11T03:25:43.459Z,7.47
2019-05-11T03:28:13.170Z,7.33
2019-05-11T03:30:42.893Z,7.37
2019-05-11T03:33:12.564Z,7.43
2019-05-11T03:35:42.225Z,7.70
2019-05-11T03:38:11.132Z,7.33
2019-05-11T03:40:40.737Z,8.10
2019-05-11T03:43:10.398Z,7.97
2019-05-11T03:45:40.002Z,8.00
2019-05-11T03:48:09.629Z,7.93
2019-05-11T03:50:38.584Z,7.53
2019-05-11T03:53:08.221Z,8.00
2019-05-11T03:55:37.834Z,7.20
2019-05-11T03:58:07.482Z,7.53
2019-05-11T04:00:37.103Z,7.47
2019-05-11T04:03:06.700Z,7.73
2019-05-11T04:05:36.341Z,8.10
2019-05-11T04:08:05.990Z,7.63
2019-05-11T04:10:35.595Z,8.37
2019-05-11T04:13:05.202Z,7.77
2019-05-11T04:15:34.874Z,7.47
2019-05-11T04:18:04.499Z,7.63
2019-05-11T04:20:34.165Z,8.30
2019-05-11T04:23:03.127Z,7.07
2019-05-11T04:25:32.705Z,8.40
2019-05-11T04:28:21.365Z,6.73
2019-05-11T04:30:50.445Z,7.20
2019-05-11T04:33:20.008Z,8.33
2019-05-11T04:35:49.715Z,7.00
2019-05-11T04:38:19.424Z,7.47
2019-05-11T04:40:49.053Z,7.13
2019-05-11T04:43:19.102Z,7.17
2019-05-11T04:45:48.703Z,7.13
2019-05-11T04:48:18.282Z,7.70
2019-05-11T04:50:47.266Z,7.00
2019-05-11T04:53:35.989Z,7.30
2019-05-11T04:56:04.910Z,7.03
2019-05-11T04:58:34.543Z,6.93
2019-05-11T05:01:03.516Z,7.23
2019-05-11T05:03:40.929Z,6.60
2019-05-11T05:06:22.067Z,6.70
2019-05-11T05:08:35.127Z,6.30
2019-05-11T05:11:04.737Z,7.07
2019-05-11T05:13:34.372Z,6.63
2019-05-11T05:16:09.769Z,6.37
2019-05-11T05:18:38.722Z,6.83
2019-05-11T05:21:07.686Z,6.27
2019-05-11T05:23:36.691Z,6.10
2019-05-11T05:26:06.400Z,5.93
2019-05-11T05:28:36.198Z,6.77
2019-05-11T05:31:05.984Z,6.03
2019-05-11T05:33:49.418Z,5.63
2019-05-11T05:36:19.252Z,5.20
2019-05-11T05:38:49.007Z,5.70
2019-05-11T05:41:18.721Z,5.50
2019-05-11T05:43:49.953Z,4.87
2019-05-11T05:46:18.972Z,5.80
2019-05-11T05:48:48.653Z,5.70
2019-05-11T05:51:18.461Z,4.97
2019-05-11T05:53:48.189Z,5.27
2019-05-11T05:56:17.929Z,5.43
2019-05-11T05:58:50.818Z,5.27
2019-05-11T06:01:20.589Z,5.40
2019-05-11T06:03:51.432Z,4.73
2019-05-11T06:06:21.151Z,5.17
2019-05-11T06:08:50.776Z,5.90
2019-05-11T06:11:21.935Z,5.40
2019-05-11T06:13:55.068Z,5.03
2019-05-11T06:16:27.340Z,6.13
2019-05-11T06:18:57.050Z,5.87
2019-05-11T06:21:26.855Z,5.33
2019-05-11T06:23:55.957Z,5.17
2019-05-11T06:26:25.790Z,4.87
2019-05-11T06:28:55.554Z,4.80
2019-05-11T06:31:25.357Z,4.53
2019-05-11T06:33:54.392Z,4.30
2019-05-11T06:36:23.303Z,4.60
2019-05-11T06:38:52.987Z,4.17
2019-05-11T06:41:22.130Z,4.30
2019-05-11T06:44:01.419Z,4.37
2019-05-11T06:46:23.143Z,4.07
2019-05-11T06:48:52.824Z,4.33
2019-05-11T06:51:21.920Z,4.43
2019-05-11T06:53:50.846Z,4.20
2019-05-11T06:56:21.861Z,4.57
2019-05-11T06:58:50.871Z,4.20
2019-05-11T07:01:23.088Z,3.73
2019-05-11T07:03:54.361Z,4.07
2019-05-11T07:06:28.165Z,4.10
2019-05-11T07:08:55.360Z,4.33
2019-05-11T07:11:28.117Z,4.10
2019-05-11T07:14:20.379Z,8.10
2019-05-11T07:16:43.742Z,4.67
2019-05-11T07:19:12.720Z,4.70
2019-05-11T07:21:42.472Z,3.93
2019-05-11T07:24:12.171Z,3.60
2019-05-11T07:26:42.907Z,4.27
2019-05-11T07:29:12.591Z,3.80
2019-05-11T07:31:42.293Z,3.50
2019-05-11T07:34:13.643Z,4.20
2019-05-11T07:36:43.340Z,3.73
2019-05-11T07:39:14.661Z,4.47
2019-05-11T07:41:47.850Z,4.30
2019-05-11T07:44:19.098Z,3.73
2019-05-11T07:46:49.120Z,4.10
2019-05-11T07:49:18.759Z,4.20
2019-05-11T07:51:48.169Z,3.70
2019-05-11T07:54:18.714Z,3.47
2019-05-11T07:56:48.630Z,3.70
2019-05-11T07:59:18.479Z,3.03
2019-05-11T08:01:48.250Z,3.67
2019-05-11T08:04:18.343Z,3.20
2019-05-11T08:06:49.502Z,3.60
2019-05-11T08:09:22.969Z,3.23
2019-05-11T08:11:53.648Z,3.23
2019-05-11T08:14:23.302Z,3.43
2019-05-11T08:16:52.979Z,3.77
2019-05-11T08:19:21.906Z,3.87
2019-05-11T08:21:51.521Z,3.47
2019-05-11T08:24:21.229Z,3.70
2019-05-11T08:26:51.008Z,3.03
2019-05-11T08:29:19.982Z,3.43
2019-05-11T08:31:49.700Z,3.80
2019-05-11T08:34:18.749Z,3.20
2019-05-11T08:36:48.169Z,3.60
2019-05-11T08:39:19.988Z,3.77
2019-05-11T08:41:50.195Z,3.60
2019-05-11T08:44:19.156Z,4.53
2019-05-11T08:46:48.166Z,4.20
2019-05-11T08:49:19.847Z,3.77
2019-05-11T08:51:48.883Z,4.10
2019-05-11T08:54:18.659Z,3.60
2019-05-11T08:57:01.564Z,3.47
2019-05-11T08:59:32.624Z,4.63
2019-05-11T09:02:02.248Z,5.10
2019-05-11T09:04:50.915Z,5.17
2019-05-11T09:07:19.916Z,5.30
2019-05-11T09:09:49.550Z,5.23
2019-05-11T09:12:19.369Z,4.50
2019-05-11T09:14:48.962Z,5.20
2019-05-11T09:17:18.586Z,5.00
2019-05-11T09:19:48.240Z,5.10
2019-05-11T09:22:18.647Z,5.00
2019-05-11T09:24:48.640Z,4.60
2019-05-11T09:27:18.551Z,3.83
2019-05-11T09:29:48.637Z,4.00
2019-05-11T09:32:18.375Z,4.40
2019-05-11T09:34:48.564Z,3.73
2019-05-11T09:37:18.510Z,3.73
2019-05-11T09:39:48.152Z,3.47
2019-05-11T09:42:18.083Z,3.40
2019-05-11T09:44:48.518Z,3.90
2019-05-11T09:47:19.037Z,3.27
2019-05-11T09:49:51.085Z,3.97
2019-05-11T09:52:20.088Z,3.77
2019-05-11T09:54:49.732Z,4.30
2019-05-11T09:57:19.579Z,3.97
2019-05-11T09:59:49.240Z,4.53
2019-05-11T10:02:21.049Z,3.97
2019-05-11T10:04:50.927Z,4.40
2019-05-11T10:07:20.789Z,4.37
2019-05-11T10:09:50.539Z,4.43
2019-05-11T10:12:20.205Z,4.60
2019-05-11T10:14:50.117Z,4.93
2019-05-11T10:17:19.782Z,5.93
2019-05-11T10:19:49.791Z,4.77
2019-05-11T10:22:18.882Z,5.40
2019-05-11T10:25:08.950Z,4.83
2019-05-11T10:27:39.452Z,4.70
2019-05-11T10:30:09.968Z,4.63
2019-05-11T10:32:42.728Z,5.10
2019-05-11T10:35:18.180Z,4.97
2019-05-11T10:37:47.803Z,4.67
2019-05-11T10:40:20.755Z,4.77
2019-05-11T10:43:08.721Z,4.00
2019-05-11T10:45:38.549Z,3.70
2019-05-11T10:48:08.930Z,3.97
2019-05-11T10:50:40.669Z,3.97
2019-05-11T10:53:12.807Z,3.10
2019-05-11T10:55:42.519Z,3.57
2019-05-11T10:58:13.392Z,4.00
2019-05-11T11:00:45.383Z,5.27
2019-05-11T11:03:17.748Z,3.40
2019-05-11T11:05:48.607Z,3.50
2019-05-11T11:08:18.747Z,3.80
2019-05-11T11:10:48.589Z,4.20
2019-05-11T11:13:18.832Z,3.73
2019-05-11T11:15:50.317Z,3.30
2019-05-11T11:18:20.038Z,3.83
2019-05-11T11:20:49.754Z,3.67
2019-05-11T11:23:19.465Z,3.70
2019-05-11T11:25:51.189Z,3.17
2019-05-11T11:28:20.800Z,2.90
2019-05-11T11:30:50.566Z,2.55
2019-05-11T11:33:20.300Z,4.10
2019-05-11T11:35:51.183Z,4.30
2019-05-11T11:38:20.894Z,3.67
2019-05-11T11:40:53.253Z,3.20
2019-05-11T11:43:23.079Z,3.30
2019-05-11T11:45:52.735Z,3.30
2019-05-11T11:48:21.676Z,3.07
2019-05-11T11:50:51.377Z,3.30
2019-05-11T11:53:20.973Z,3.02
2019-05-11T11:55:50.646Z,3.30
2019-05-11T11:58:23.798Z,2.52
2019-05-11T12:00:51.685Z,3.15
2019-05-11T12:03:21.336Z,3.10
2019-05-11T12:05:51.173Z,2.80
2019-05-11T12:08:20.432Z,3.22
2019-05-11T12:10:50.279Z,2.90
2019-05-11T12:13:20.003Z,2.30
2019-05-11T12:15:50.206Z,2.20
2019-05-11T12:18:19.937Z,2.40
2019-05-11T12:20:49.058Z,3.15
2019-05-11T12:23:18.916Z,2.58
2019-05-11T12:25:48.861Z,2.30
2019-05-11T12:28:18.769Z,2.55
2019-05-11T12:30:48.756Z,2.47
2019-05-11T12:33:18.882Z,2.30
2019-05-11T12:35:52.170Z,2.60
2019-05-11T12:38:21.356Z,2.67
2019-05-11T12:40:50.495Z,2.50
2019-05-11T12:43:22.452Z,2.47
2019-05-11T12:45:51.846Z,2.17
2019-05-11T12:48:21.548Z,2.12
2019-05-11T12:50:53.030Z,2.47
2019-05-11T12:53:22.714Z,2.60
2019-05-11T12:55:52.362Z,2.33
2019-05-11T12:58:22.094Z,2.40
2019-05-11T13:00:51.867Z,2.52
2019-05-11T13:03:21.499Z,2.42
2019-05-11T13:05:51.119Z,2.55
2019-05-11T13:08:21.517Z,1.90
2019-05-11T13:10:51.190Z,2.58
2019-05-11T13:13:20.973Z,2.40
2019-05-11T13:15:50.618Z,2.37
2019-05-11T13:18:20.220Z,1.80
2019-05-11T13:20:49.857Z,2.20
2019-05-11T13:23:19.500Z,2.15
2019-05-11T13:25:48.403Z,1.60
2019-05-11T13:28:18.117Z,1.52
2019-05-11T13:30:48.844Z,1.70
2019-05-11T13:33:19.032Z,1.72
2019-05-11T13:35:48.446Z,1.90
2019-05-11T13:38:18.081Z,1.98
2019-05-11T13:40:48.766Z,1.85
2019-05-11T13:43:19.061Z,1.52
2019-05-11T13:45:48.707Z,1.55
2019-05-11T13:48:20.579Z,1.30
2019-05-11T13:50:50.229Z,1.85
2019-05-11T13:53:19.952Z,1.42
2019-05-11T13:55:49.540Z,1.47
2019-05-11T13:58:19.999Z,1.60
2019-05-11T14:00:49.837Z,1.60
2019-05-11T14:03:43.347Z,1.50
2019-05-11T14:06:13.351Z,2.00
2019-05-11T14:08:42.966Z,1.60
2019-05-11T14:11:13.079Z,1.65
2019-05-11T14:13:42.810Z,1.60
2019-05-11T14:16:12.506Z,1.92
2019-05-11T14:18:42.116Z,2.08
2019-05-11T14:21:11.085Z,2.25
2019-05-11T14:24:00.004Z,1.90
2019-05-11T14:26:29.708Z,1.90
2019-05-11T14:28:59.346Z,1.80
2019-05-11T14:31:29.623Z,1.98
2019-05-11T14:33:59.245Z,1.55
2019-05-11T14:36:28.947Z,1.40
2019-05-11T14:38:58.514Z,1.55
2019-05-11T14:41:28.566Z,1.62
2019-05-11T14:43:58.369Z,1.72
2019-05-11T14:46:47.755Z,1.62
2019-05-11T14:49:18.431Z,1.85
2019-05-11T14:51:48.516Z,1.55
2019-05-11T14:54:23.119Z,1.80
2019-05-11T14:56:54.712Z,1.30
2019-05-11T14:59:24.282Z,1.82
2019-05-11T15:01:54.107Z,1.25
2019-05-11T15:04:23.696Z,1.47
2019-05-11T15:06:53.487Z,1.77
2019-05-11T15:09:23.545Z,1.80
2019-05-11T15:11:55.145Z,1.40
2019-05-11T15:14:24.829Z,1.80
2019-05-11T15:16:53.827Z,1.45
2019-05-11T15:19:23.529Z,1.72
2019-05-11T15:21:53.509Z,1.30
2019-05-11T15:24:30.239Z,1.65
2019-05-11T15:26:59.240Z,1.50
2019-05-11T15:30:28.546Z,1.75
2019-05-11T15:33:27.668Z,1.72
2019-05-11T15:35:58.331Z,1.37
2019-05-11T15:38:30.014Z,1.25
2019-05-11T15:40:59.668Z,1.30
2019-05-11T15:43:29.347Z,1.15
2019-05-11T15:46:00.273Z,1.10
2019-05-11T15:48:55.719Z,1.65
2019-05-11T15:51:19.012Z,1.40
2019-05-11T15:53:50.251Z,1.57
2019-05-11T15:56:19.404Z,1.72
2019-05-11T15:58:49.358Z,1.35
2019-05-11T16:01:18.841Z,1.60
2019-05-11T16:03:50.087Z,1.70
2019-05-11T16:06:19.390Z,1.60
2019-05-11T16:08:49.051Z,1.32
2019-05-11T16:11:18.889Z,1.52
2019-05-11T16:13:48.381Z,1.85
2019-05-11T16:16:17.576Z,1.60
2019-05-11T16:18:48.394Z,1.82
2019-05-11T16:21:18.169Z,1.50
2019-05-11T16:23:48.060Z,1.90
2019-05-11T16:26:17.638Z,1.47
2019-05-11T16:28:47.847Z,1.40
2019-05-11T16:31:18.051Z,1.90
2019-05-11T16:33:48.430Z,1.40
2019-05-11T16:36:18.107Z,1.50
2019-05-11T16:38:48.383Z,1.42
2019-05-11T16:41:21.016Z,1.57
2019-05-11T16:43:48.905Z,1.70
2019-05-11T16:46:18.590Z,1.60
2019-05-11T16:48:48.271Z,1.85
2019-05-11T16:51:17.958Z,1.12
2019-05-11T16:53:48.104Z,1.22
2019-05-11T16:56:38.293Z,1.20
2019-05-11T16:59:08.225Z,1.17
2019-05-11T17:01:38.174Z,1.50
2019-05-11T17:04:07.837Z,1.20
2019-05-11T17:06:38.646Z,2.00
2019-05-11T17:09:08.946Z,1.40
2019-05-11T17:11:38.737Z,1.32
2019-05-11T17:14:08.540Z,1.30
2019-05-11T17:16:38.756Z,1.55
2019-05-11T17:19:08.636Z,1.45
2019-05-11T17:21:38.434Z,1.55
2019-05-11T17:24:08.131Z,2.45
2019-05-11T17:26:38.544Z,1.77
2019-05-11T17:29:10.026Z,1.92
2019-05-11T17:31:39.332Z,2.15
2019-05-11T17:34:09.263Z,1.70
2019-05-11T17:36:38.287Z,1.70
2019-05-11T17:39:08.119Z,1.65
2019-05-11T17:41:38.883Z,1.75
2019-05-11T17:44:08.476Z,1.87
2019-05-11T17:46:38.520Z,1.65
2019-05-11T17:49:08.045Z,2.00
2019-05-11T17:51:37.889Z,1.40
2019-05-11T17:54:11.141Z,2.12
2019-05-11T17:56:39.613Z,2.17
2019-05-11T17:59:09.216Z,1.95
2019-05-11T18:01:38.887Z,2.40
2019-05-11T18:04:08.629Z,2.15
2019-05-11T18:06:38.587Z,1.50
2019-05-11T18:09:08.860Z,1.55
2019-05-11T18:11:38.159Z,1.85
2019-05-11T18:14:08.516Z,1.60
2019-05-11T18:16:37.624Z,2.52
2019-05-11T18:19:08.500Z,2.17
2019-05-11T18:21:38.861Z,1.73
2019-05-11T18:24:09.117Z,2.00
2019-05-11T18:26:39.186Z,1.90
2019-05-11T18:29:08.122Z,1.70
2019-05-11T18:31:38.541Z,1.90
2019-05-11T18:34:08.976Z,1.70
2019-05-11T18:36:38.704Z,1.80
2019-05-11T18:39:09.018Z,1.70
2019-05-11T18:41:39.212Z,1.85
2019-05-11T18:44:09.062Z,2.53
2019-05-11T18:46:38.905Z,2.22
2019-05-11T18:49:08.871Z,2.17
2019-05-11T18:51:38.024Z,2.83
2019-05-11T18:54:09.351Z,3.00
2019-05-11T18:56:38.881Z,2.73
2019-05-11T18:59:28.333Z,2.45
2019-05-11T19:01:58.679Z,2.33
2019-05-11T19:04:28.732Z,2.60
2019-05-11T19:07:11.990Z,2.30
2019-05-11T19:09:29.847Z,2.30
2019-05-11T19:11:58.759Z,2.40
2019-05-11T19:14:28.190Z,2.37
2019-05-11T19:16:57.218Z,2.90
2019-05-11T19:19:26.899Z,2.60
2019-05-11T19:21:55.893Z,2.92
2019-05-11T19:24:24.824Z,3.62
2019-05-11T19:27:12.821Z,2.98
2019-05-11T19:29:42.636Z,3.00
2019-05-11T19:32:12.227Z,3.90
2019-05-11T19:34:41.869Z,2.93
2019-05-11T19:37:11.457Z,2.47
2019-05-11T19:39:41.168Z,2.85
2019-05-11T19:42:10.836Z,3.07
2019-05-11T19:44:40.446Z,4.15
2019-05-11T19:47:09.434Z,4.12
2019-05-11T19:49:39.108Z,3.20
2019-05-11T19:52:08.832Z,3.67
2019-05-11T19:54:38.452Z,4.13
2019-05-11T19:57:08.408Z,4.30
2019-05-11T19:59:38.752Z,6.37
2019-05-11T20:02:08.567Z,5.20
2019-05-11T20:04:38.726Z,7.85
2019-05-11T20:07:08.821Z,6.20
2019-05-11T20:09:38.830Z,6.17
2019-05-11T20:12:08.618Z,5.78
2019-05-11T20:14:38.225Z,6.35
2019-05-11T20:17:08.939Z,6.35
2019-05-11T20:19:38.722Z,6.00
2019-05-11T20:22:08.390Z,5.90
2019-05-11T20:24:37.988Z,7.20
2019-05-11T20:27:08.043Z,6.73
2019-05-11T20:29:38.509Z,7.27
2019-05-11T20:32:08.270Z,6.70
2019-05-11T20:34:38.220Z,6.83
2019-05-11T20:37:07.972Z,6.60
2019-05-11T20:39:37.915Z,6.60
2019-05-11T20:42:08.689Z,6.47
2019-05-11T20:44:38.466Z,6.77
2019-05-11T20:47:08.083Z,6.12
2019-05-11T20:49:38.649Z,6.27
2019-05-11T20:52:08.698Z,6.67
2019-05-11T20:54:38.654Z,6.33
2019-05-11T20:57:08.893Z,6.42
2019-05-11T20:59:38.675Z,5.40
2019-05-11T21:02:09.260Z,6.37
2019-05-11T21:04:39.149Z,6.07
2019-05-11T21:07:08.535Z,5.63
2019-05-11T21:09:38.231Z,5.20
2019-05-11T21:12:08.142Z,5.87
2019-05-11T21:14:38.562Z,5.13
2019-05-11T21:17:09.042Z,5.07
2019-05-11T21:19:38.786Z,4.83
2019-05-11T21:22:08.984Z,4.83
2019-05-11T21:24:38.033Z,4.60
2019-05-11T21:27:13.180Z,4.30
2019-05-11T21:29:42.942Z,4.20
2019-05-11T21:32:14.943Z,5.17
2019-05-11T21:34:44.589Z,4.37
2019-05-11T21:37:14.841Z,4.03
2019-05-11T21:39:44.411Z,3.93
2019-05-11T21:42:14.071Z,3.73
2019-05-11T21:44:43.705Z,3.50
2019-05-11T21:47:12.688Z,3.87
2019-05-11T21:49:42.714Z,3.53
2019-05-11T21:52:12.364Z,3.53
2019-05-11T21:54:41.988Z,3.40
2019-05-11T21:57:10.952Z,3.63
2019-05-11T21:59:40.530Z,3.53
2019-05-11T22:02:11.044Z,3.77
2019-05-11T22:04:40.941Z,3.33
2019-05-11T22:07:10.565Z,3.27
2019-05-11T22:09:40.183Z,3.20
2019-05-11T22:12:10.808Z,3.00
2019-05-11T22:14:40.608Z,3.10
2019-05-11T22:17:10.264Z,2.70
2019-05-11T22:19:40.527Z,2.70
2019-05-11T22:22:21.121Z,2.77
2019-05-11T22:24:41.667Z,3.17
2019-05-11T22:27:11.254Z,2.90
2019-05-11T22:29:40.890Z,2.63
2019-05-11T22:32:10.594Z,3.00
2019-05-11T22:34:40.176Z,3.47
2019-05-11T22:37:09.771Z,3.27
2019-05-11T22:39:39.410Z,3.90
2019-05-11T22:42:09.059Z,2.80
2019-05-11T22:44:38.633Z,3.43
2019-05-11T22:47:08.958Z,3.10
2019-05-11T22:49:38.657Z,3.37
2019-05-11T22:52:08.748Z,3.60
2019-05-11T22:54:38.604Z,3.10
2019-05-11T22:57:08.267Z,3.43
2019-05-11T22:59:38.525Z,3.63
2019-05-11T23:02:10.867Z,3.27
2019-05-11T23:04:39.561Z,3.67
2019-05-11T23:07:09.198Z,3.70
2019-05-11T23:09:38.834Z,3.67
2019-05-11T23:12:08.982Z,4.07
2019-05-11T23:14:38.883Z,3.53
2019-05-11T23:17:08.537Z,3.53
2019-05-11T23:19:38.175Z,3.43
2019-05-11T23:22:08.214Z,3.90
2019-05-11T23:24:38.043Z,3.50
2019-05-11T23:27:08.011Z,3.30
2019-05-11T23:29:38.380Z,3.23
2019-05-11T23:32:08.640Z,2.87
2019-05-11T23:34:38.789Z,3.10
2019-05-11T23:37:27.829Z,3.23
2019-05-11T23:39:59.297Z,3.20
2019-05-11T23:42:31.878Z,2.97
2019-05-11T23:45:01.517Z,2.67
2019-05-11T23:47:30.444Z,3.13
2019-05-11T23:50:00.006Z,2.87
2019-05-11T23:52:29.672Z,3.07
2019-05-11T23:54:59.242Z,2.90
2019-05-11T23:57:28.807Z,2.57
2019-05-11T23:59:58.415Z,3.00
